Time;durP1;ratioP1;P1;durP2;ratioP2;P2;SDS_P1;SDS_P2;PMS_P1;PMS_P2;Temp;Humidity;BMP_temperature;BMP_pressure;BME280_temperature;BME280_humidity;BME280_pressure;Samples;Min_cycle;Max_cycle;Signal;HPM_P1;HPM_P2
2022/10/10 00:03:33;;;;;;;10.90;6.07;;;5.10;99.90;;;;;;8372970;28;20192;-67
2022/10/10 00:07:33;;;;;;;8.10;5.60;;;5.20;99.90;;;;;;8371679;28;20195;-67
2022/10/10 00:11:34;;;;;;;17.90;5.60;;;5.40;99.90;;;;;;8373774;28;20191;-67
2022/10/10 00:15:35;;;;;;;8.53;4.57;;;5.60;99.90;;;;;;8375120;28;20196;-67
2022/10/10 00:19:36;;;;;;;11.80;5.07;;;5.70;99.90;;;;;;8373159;28;20189;-67
2022/10/10 00:23:37;;;;;;;8.30;5.60;;;5.70;99.90;;;;;;8382029;28;20470;-67
2022/10/10 00:27:38;;;;;;;9.00;5.37;;;5.80;99.90;;;;;;8373919;28;20182;-66
2022/10/10 00:31:39;;;;;;;11.83;5.50;;;5.90;99.90;;;;;;8375086;28;20591;-68
2022/10/10 00:35:40;;;;;;;8.17;4.77;;;5.90;99.90;;;;;;8376888;28;20267;-68
2022/10/10 00:39:40;;;;;;;9.23;5.97;;;5.90;99.90;;;;;;8382192;28;20181;-68
2022/10/10 00:43:41;;;;;;;9.53;6.27;;;5.90;99.90;;;;;;8372204;28;20182;-68
2022/10/10 00:47:42;;;;;;;11.70;5.53;;;5.90;99.90;;;;;;8374407;28;20181;-67
2022/10/10 00:51:46;;;;;;;10.67;5.47;;;5.90;99.90;;;;;;8374394;28;20295;-68
2022/10/10 00:55:47;;;;;;;10.97;6.07;;;5.80;99.90;;;;;;8384247;28;20196;-68
2022/10/10 00:59:48;;;;;;;7.90;5.00;;;5.80;99.90;;;;;;8377895;28;20204;-67
2022/10/10 01:03:49;;;;;;;10.00;5.53;;;5.80;99.90;;;;;;8375882;28;20188;-66
2022/10/10 01:07:50;;;;;;;9.87;5.07;;;5.70;99.90;;;;;;8377638;28;20188;-67
2022/10/10 01:11:58;;;;;;;10.10;5.33;;;5.70;99.90;;;;;;8376099;28;20193;-68
2022/10/10 01:16:19;;;;;;;9.67;5.80;;;5.70;99.90;;;;;;8374852;28;20326;-67
2022/10/10 01:20:41;;;;;;;13.23;5.70;;;5.70;99.90;;;;;;8378354;28;20200;-68
2022/10/10 01:24:45;;;;;;;8.17;5.50;;;5.60;99.90;;;;;;8382787;28;20310;-68
2022/10/10 01:29:01;;;;;;;15.27;6.17;;;5.60;99.90;;;;;;8380314;28;20207;-68
2022/10/10 01:33:14;;;;;;;10.63;5.63;;;5.60;99.90;;;;;;8380405;28;20185;-68
2022/10/10 01:37:19;;;;;;;12.97;6.07;;;5.60;99.90;;;;;;8382162;28;20247;-68
2022/10/10 01:41:41;;;;;;;9.63;6.03;;;5.60;99.90;;;;;;8384115;28;20181;-67
2022/10/10 01:45:51;;;;;;;8.87;5.23;;;5.60;99.90;;;;;;8382339;28;20224;-68
2022/10/10 01:49:58;;;;;;;9.47;5.37;;;5.60;99.90;;;;;;8378637;28;20181;-67
2022/10/10 01:54:04;;;;;;;10.97;5.73;;;5.50;99.90;;;;;;8382762;28;20270;-68
2022/10/10 01:58:17;;;;;;;8.93;5.87;;;5.40;99.90;;;;;;8375050;28;20217;-67
2022/10/10 02:02:36;;;;;;;12.00;6.47;;;5.30;99.90;;;;;;8380701;28;20203;-67
2022/10/10 02:07:02;;;;;;;10.47;5.20;;;5.30;99.90;;;;;;8380596;28;20189;-67
2022/10/10 02:11:09;;;;;;;6.17;4.43;;;5.20;99.90;;;;;;8382504;28;20242;-66
2022/10/10 02:15:16;;;;;;;11.87;5.17;;;5.20;99.90;;;;;;8377114;28;20197;-66
2022/10/10 02:19:19;;;;;;;11.50;5.57;;;5.20;99.90;;;;;;8380725;28;20220;-68
2022/10/10 02:23:21;;;;;;;10.23;5.83;;;5.20;99.90;;;;;;8378629;28;20188;-67
2022/10/10 02:27:38;;;;;;;10.63;6.73;;;5.30;99.90;;;;;;8381209;28;20255;-67
2022/10/10 02:31:52;;;;;;;12.07;6.00;;;5.30;99.90;;;;;;8380707;28;20201;-67
2022/10/10 02:35:53;;;;;;;12.17;6.53;;;5.30;99.90;;;;;;8377910;28;20192;-67
2022/10/10 02:39:59;;;;;;;13.73;6.67;;;5.30;99.90;;;;;;8381010;28;20196;-67
2022/10/10 02:44:00;;;;;;;7.90;5.97;;;5.30;99.90;;;;;;8381110;28;20181;-66
2022/10/10 02:48:01;;;;;;;8.57;6.03;;;5.30;99.90;;;;;;8382453;28;20189;-67
2022/10/10 02:52:03;;;;;;;10.13;6.17;;;5.20;99.90;;;;;;8379728;28;20192;-67
2022/10/10 02:56:04;;;;;;;9.40;6.13;;;5.20;99.90;;;;;;8380892;28;20216;-68
2022/10/10 03:00:06;;;;;;;10.83;6.63;;;5.20;99.90;;;;;;8378580;28;20205;-70
2022/10/10 03:04:07;;;;;;;8.33;5.77;;;5.20;99.90;;;;;;8379099;28;20193;-66
2022/10/10 03:08:07;;;;;;;11.90;5.80;;;5.10;99.90;;;;;;8379690;28;20223;-66
2022/10/10 03:12:08;;;;;;;8.17;5.43;;;5.10;99.90;;;;;;8377540;28;20185;-65
2022/10/10 03:16:10;;;;;;;10.33;6.03;;;5.00;99.90;;;;;;8378944;28;20225;-67
2022/10/10 03:20:10;;;;;;;10.33;6.53;;;5.00;99.90;;;;;;8380769;28;20186;-67
2022/10/10 03:24:11;;;;;;;10.10;6.80;;;5.00;99.90;;;;;;8382259;28;20188;-67
2022/10/10 03:28:13;;;;;;;9.10;6.40;;;5.00;99.90;;;;;;8379319;28;20265;-66
2022/10/10 03:32:13;;;;;;;11.63;6.67;;;5.00;99.90;;;;;;8376419;28;20203;-66
2022/10/10 03:36:14;;;;;;;11.97;6.67;;;5.00;99.90;;;;;;8379432;28;20255;-66
2022/10/10 03:40:15;;;;;;;8.30;5.40;;;5.10;99.90;;;;;;8375978;28;20182;-67
2022/10/10 03:44:16;;;;;;;9.50;6.03;;;4.90;99.90;;;;;;8368240;28;20263;-67
2022/10/10 03:48:17;;;;;;;6.70;5.23;;;4.80;99.90;;;;;;8378879;28;20447;-67
2022/10/10 03:52:18;;;;;;;11.13;5.83;;;4.70;99.90;;;;;;8373542;28;20232;-66
2022/10/10 03:56:19;;;;;;;9.87;5.67;;;4.60;99.90;;;;;;8378422;28;20292;-66
2022/10/10 04:00:19;;;;;;;12.10;6.03;;;4.50;99.90;;;;;;8379268;28;20280;-67
2022/10/10 04:04:20;;;;;;;9.53;6.20;;;4.40;99.90;;;;;;8378690;28;20294;-66
2022/10/10 04:08:21;;;;;;;9.33;5.57;;;4.30;99.90;;;;;;8377135;28;20192;-68
2022/10/10 04:12:22;;;;;;;43.33;23.20;;;4.30;99.90;;;;;;8379852;28;20296;-67
2022/10/10 04:16:23;;;;;;;14.60;9.10;;;4.20;99.90;;;;;;8378243;28;20216;-68
2022/10/10 04:20:24;;;;;;;9.40;6.47;;;4.20;99.90;;;;;;8377575;28;20195;-69
2022/10/10 04:24:25;;;;;;;9.40;5.73;;;4.10;99.90;;;;;;8377141;28;20194;-67
2022/10/10 04:28:26;;;;;;;9.97;6.17;;;4.00;99.90;;;;;;8376299;28;20191;-67
2022/10/10 04:32:27;;;;;;;10.80;6.13;;;3.90;99.90;;;;;;8374161;28;20192;-68
2022/10/10 04:36:27;;;;;;;11.83;7.00;;;3.90;99.90;;;;;;8379566;28;20203;-66
2022/10/10 04:40:28;;;;;;;8.80;6.27;;;3.80;99.90;;;;;;8377449;28;20248;-66
2022/10/10 04:44:29;;;;;;;7.87;6.00;;;3.80;99.90;;;;;;8378642;28;20177;-66
2022/10/10 04:48:30;;;;;;;11.77;6.33;;;3.70;99.90;;;;;;8378987;28;20188;-67
2022/10/10 04:52:31;;;;;;;9.43;6.47;;;3.70;99.90;;;;;;8377165;28;20194;-66
2022/10/10 04:56:32;;;;;;;9.57;6.70;;;3.60;99.90;;;;;;8373573;28;20544;-66
2022/10/10 05:00:33;;;;;;;9.67;6.30;;;3.50;99.90;;;;;;8376535;28;20185;-68
2022/10/10 05:04:33;;;;;;;12.70;7.83;;;3.50;99.90;;;;;;8376700;28;20192;-67
2022/10/10 05:08:34;;;;;;;15.53;9.70;;;3.30;99.90;;;;;;8372950;28;20186;-66
2022/10/10 05:12:35;;;;;;;19.10;11.67;;;3.30;99.90;;;;;;8374611;28;20187;-66
2022/10/10 05:16:36;;;;;;;17.40;10.40;;;3.30;99.90;;;;;;8373375;28;20207;-67
2022/10/10 05:20:36;;;;;;;18.27;9.83;;;3.30;99.90;;;;;;8374688;28;20684;-66
2022/10/10 05:24:39;;;;;;;22.83;11.23;;;3.30;99.90;;;;;;8375381;28;20217;-66
2022/10/10 05:28:39;;;;;;;15.23;8.60;;;3.20;99.90;;;;;;8373689;28;20285;-66
2022/10/10 05:32:41;;;;;;;26.73;15.37;;;3.20;99.90;;;;;;8372860;28;20210;-66
2022/10/10 05:36:42;;;;;;;37.63;18.47;;;3.30;99.90;;;;;;8375083;28;20206;-67
2022/10/10 05:40:43;;;;;;;30.97;17.53;;;3.30;99.90;;;;;;8374833;28;20201;-66
2022/10/10 05:44:44;;;;;;;32.80;17.13;;;3.40;99.90;;;;;;8372700;28;20186;-68
2022/10/10 05:48:44;;;;;;;28.93;15.47;;;3.50;99.90;;;;;;8373890;28;20641;-66
2022/10/10 05:52:45;;;;;;;44.00;21.47;;;3.50;99.90;;;;;;8371460;28;20194;-67
2022/10/10 05:56:46;;;;;;;49.03;22.00;;;3.70;99.90;;;;;;8372735;28;20219;-66
2022/10/10 06:00:47;;;;;;;36.90;20.13;;;3.80;99.90;;;;;;8375116;28;20181;-66
2022/10/10 06:04:48;;;;;;;32.03;17.60;;;3.90;99.90;;;;;;8375615;28;20217;-67
2022/10/10 06:08:48;;;;;;;22.60;14.13;;;4.00;99.90;;;;;;8378346;28;20197;-66
2022/10/10 06:12:49;;;;;;;23.07;14.57;;;4.20;99.90;;;;;;8382406;28;20269;-67
2022/10/10 06:16:50;;;;;;;26.63;15.87;;;4.30;99.90;;;;;;8381557;28;20258;-66
2022/10/10 06:20:51;;;;;;;18.40;13.90;;;4.40;99.90;;;;;;8379413;28;20213;-67
2022/10/10 06:24:52;;;;;;;18.70;12.43;;;4.60;99.90;;;;;;8377231;28;20208;-67
2022/10/10 06:28:53;;;;;;;17.03;11.83;;;4.80;99.90;;;;;;8378131;28;20188;-69
2022/10/10 06:32:53;;;;;;;29.53;17.67;;;4.90;99.90;;;;;;8379712;28;20276;-68
2022/10/10 06:36:54;;;;;;;36.17;21.77;;;5.00;99.90;;;;;;8376015;28;20213;-67
2022/10/10 06:40:59;;;;;;;44.27;18.80;;;5.20;99.90;;;;;;8378906;28;20207;-67
2022/10/10 06:45:00;;;;;;;42.97;27.40;;;5.50;99.90;;;;;;8378752;28;20209;-67
2022/10/10 06:49:01;;;;;;;73.83;61.33;;;5.70;99.90;;;;;;8379761;28;20189;-67
2022/10/10 06:53:02;;;;;;;67.37;30.33;;;5.90;99.90;;;;;;8377285;28;20199;-67
2022/10/10 06:57:03;;;;;;;28.60;14.60;;;6.10;99.90;;;;;;8376822;28;20248;-67
2022/10/10 07:01:04;;;;;;;21.77;13.03;;;6.30;99.90;;;;;;8374906;28;20200;-68
2022/10/10 07:05:08;;;;;;;15.93;11.87;;;6.50;99.90;;;;;;8373993;28;20213;-68
2022/10/10 07:09:09;;;;;;;19.20;11.00;;;6.70;99.90;;;;;;8374788;28;20246;-68
2022/10/10 07:13:10;;;;;;;21.93;12.13;;;6.90;99.90;;;;;;8371830;28;20223;-68
2022/10/10 07:17:11;;;;;;;13.83;10.57;;;7.20;99.90;;;;;;8367853;28;20197;-68
2022/10/10 07:21:12;;;;;;;17.50;10.47;;;7.50;99.90;;;;;;8373736;28;20199;-68
2022/10/10 07:25:13;;;;;;;16.77;10.57;;;7.90;99.90;;;;;;8373559;28;20259;-68
2022/10/10 07:29:14;;;;;;;14.30;7.83;;;8.30;99.90;;;;;;8375557;28;20185;-68
2022/10/10 07:33:15;;;;;;;12.97;7.40;;;8.60;99.90;;;;;;8375421;28;20615;-68
2022/10/10 07:37:16;;;;;;;10.23;6.47;;;9.00;99.90;;;;;;8372497;28;20450;-69
2022/10/10 07:41:18;;;;;;;9.97;5.93;;;9.50;99.90;;;;;;8374033;28;20187;-68
2022/10/10 07:45:19;;;;;;;11.17;6.03;;;9.90;99.90;;;;;;8374715;28;20255;-67
2022/10/10 07:49:20;;;;;;;11.83;6.17;;;10.20;99.90;;;;;;8373068;28;20211;-69
2022/10/10 07:53:21;;;;;;;9.67;6.33;;;10.50;99.90;;;;;;8373921;28;20187;-69
2022/10/10 07:57:21;;;;;;;9.53;5.43;;;10.70;1.00;;;;;;8370290;28;20236;-69
2022/10/10 08:01:22;;;;;;;11.50;6.10;;;11.00;1.00;;;;;;8375512;28;20249;-69
2022/10/10 08:05:23;;;;;;;7.77;5.20;;;11.00;1.00;;;;;;8373627;28;20250;-69
2022/10/10 08:09:24;;;;;;;9.40;5.23;;;11.30;1.00;;;;;;8374877;28;20187;-68
2022/10/10 08:13:26;;;;;;;14.77;9.27;;;11.50;1.00;;;;;;8375010;28;20478;-68
2022/10/10 08:17:27;;;;;;;11.30;7.00;;;11.70;1.00;;;;;;8375165;28;20201;-67
2022/10/10 08:21:28;;;;;;;8.40;5.17;;;11.90;99.90;;;;;;8372278;28;20190;-67
2022/10/10 08:25:29;;;;;;;9.37;5.47;;;12.10;99.90;;;;;;8377608;28;20205;-68
2022/10/10 08:29:32;;;;;;;8.77;4.60;;;12.40;99.90;;;;;;8372224;28;20190;-70
2022/10/10 08:33:33;;;;;;;8.80;4.20;;;12.50;99.90;;;;;;8376614;28;20188;-68
2022/10/10 08:37:34;;;;;;;9.23;5.00;;;12.80;99.90;;;;;;8374125;28;20274;-67
2022/10/10 08:41:48;;;;;;;6.40;4.50;;;13.00;99.90;;;;;;8374608;28;20188;-67
2022/10/10 08:45:51;;;;;;;7.20;4.53;;;13.20;99.90;;;;;;8375756;28;20185;-68
2022/10/10 08:50:11;;;;;;;6.77;4.20;;;13.40;21.90;;;;;;8390420;28;20234;-68
2022/10/10 08:54:13;;;;;;;9.90;4.67;;;13.50;35.00;;;;;;8374021;28;20283;-69
2022/10/10 08:58:26;;;;;;;11.03;5.40;;;13.80;29.70;;;;;;8373379;28;20525;-68
2022/10/10 09:03:02;;;;;;;8.20;5.10;;;14.00;1.00;;;;;;8369658;28;20264;-68
2022/10/10 09:07:35;;;;;;;12.13;5.70;;;14.10;1.00;;;;;;8372588;28;20209;-68
2022/10/10 09:11:44;;;;;;;12.30;5.80;;;14.40;1.00;;;;;;8371756;28;20204;-67
2022/10/10 09:15:54;;;;;;;15.77;7.00;;;14.50;1.00;;;;;;8375440;28;20302;-67
2022/10/10 09:20:01;;;;;;;10.27;6.40;;;14.70;1.00;;;;;;8373287;28;20240;-68
2022/10/10 09:24:09;;;;;;;12.70;6.77;;;14.80;1.00;;;;;;8375874;28;20193;-68
2022/10/10 09:28:39;;;;;;;11.70;7.13;;;15.00;1.00;;;;;;8374354;28;20185;-67
2022/10/10 09:33:08;;;;;;;14.30;6.27;;;15.30;1.00;;;;;;8378277;28;20201;-68
2022/10/10 09:37:16;;;;;;;8.43;4.93;;;15.60;1.00;;;;;;8373729;28;20223;-68
2022/10/10 09:41:41;;;;;;;9.37;6.07;;;15.80;1.00;;;;;;8370328;28;20255;-68
2022/10/10 09:45:57;;;;;;;10.33;6.03;;;16.00;1.00;;;;;;8380968;28;20185;-68
2022/10/10 09:49:58;;;;;;;8.27;5.37;;;16.10;1.00;;;;;;8378830;28;20216;-68
2022/10/10 09:53:59;;;;;;;8.27;5.60;;;16.20;1.00;;;;;;8380890;28;20185;-68
2022/10/10 09:58:11;;;;;;;8.57;4.77;;;16.40;1.00;;;;;;8380077;28;20217;-68
2022/10/10 10:02:25;;;;;;;4.53;3.13;;;16.70;99.90;;;;;;8375370;28;20528;-68
2022/10/10 10:06:25;;;;;;;7.47;2.97;;;16.70;99.90;;;;;;8379230;28;20217;-68
2022/10/10 10:10:29;;;;;;;8.73;3.60;;;16.90;99.90;;;;;;8381432;28;20271;-68
2022/10/10 10:14:39;;;;;;;6.03;4.20;;;17.00;99.90;;;;;;8380193;28;20310;-69
2022/10/10 10:18:42;;;;;;;4.30;3.10;;;16.90;99.90;;;;;;8378724;28;20295;-68
2022/10/10 10:22:46;;;;;;;6.93;3.50;;;16.90;99.90;;;;;;8378456;28;20253;-68
2022/10/10 10:26:47;;;;;;;13.17;6.80;;;17.10;99.90;;;;;;8376649;28;20285;-68
2022/10/10 10:30:52;;;;;;;7.60;2.90;;;17.20;99.90;;;;;;8378765;28;20197;-67
2022/10/10 10:35:12;;;;;;;6.47;4.63;;;17.30;99.90;;;;;;8374373;28;20248;-68
2022/10/10 10:39:27;;;;;;;4.97;4.10;;;17.60;99.90;;;;;;8377899;28;20213;-70
2022/10/10 10:43:56;;;;;;;14.23;5.97;;;17.80;99.90;;;;;;8377215;28;20192;-68
2022/10/10 10:48:09;;;;;;;17.07;10.33;;;17.90;99.90;;;;;;8394891;28;20572;-68
2022/10/10 10:52:38;;;;;;;9.47;4.20;;;17.90;99.90;;;;;;8377137;28;20220;-68
2022/10/10 10:57:03;;;;;;;21.53;12.27;;;18.20;99.90;;;;;;8376871;28;20282;-68
2022/10/10 11:01:11;;;;;;;7.10;4.93;;;18.50;99.90;;;;;;8377743;28;20193;-69
2022/10/10 11:05:39;;;;;;;8.53;4.90;;;18.70;99.90;;;;;;8374488;28;20185;-68
2022/10/10 11:10:14;;;;;;;8.17;3.60;;;18.70;99.90;;;;;;8375294;28;20204;-69
2022/10/10 11:14:27;;;;;;;8.33;4.10;;;18.60;99.90;;;;;;8368599;28;20936;-68
2022/10/10 11:18:43;;;;;;;5.67;3.10;;;18.80;99.90;;;;;;8376525;28;20309;-68
2022/10/10 11:23:04;;;;;;;4.67;3.17;;;18.90;99.90;;;;;;8374849;28;20272;-67
2022/10/10 11:27:48;;;;;;;9.13;3.17;;;19.00;99.90;;;;;;8377668;28;20207;-69
2022/10/10 11:32:15;;;;;;;5.43;3.00;;;19.00;99.90;;;;;;8369500;28;20201;-68
2022/10/10 11:36:22;;;;;;;9.87;3.03;;;19.10;99.90;;;;;;8373755;28;20701;-68
2022/10/10 11:40:32;;;;;;;7.60;3.47;;;19.30;99.90;;;;;;8373755;28;20200;-67
2022/10/10 11:44:36;;;;;;;6.60;3.77;;;19.50;99.90;;;;;;8378368;28;20181;-69
2022/10/10 11:48:54;;;;;;;5.67;3.13;;;19.40;95.30;;;;;;8393515;28;20189;-69
2022/10/10 11:53:21;;;;;;;4.77;2.47;;;19.50;91.40;;;;;;8377035;28;20193;-68
2022/10/10 11:57:31;;;;;;;3.20;2.27;;;19.50;64.20;;;;;;8391855;28;20227;-70
2022/10/10 12:01:45;;;;;;;5.60;2.27;;;19.50;79.80;;;;;;8376105;28;20201;-69
2022/10/10 12:05:52;;;;;;;5.10;2.20;;;19.50;81.80;;;;;;8373935;28;20197;-68
2022/10/10 12:10:06;;;;;;;4.20;2.10;;;19.70;77.50;;;;;;8374413;28;20188;-67
2022/10/10 12:14:12;;;;;;;3.13;2.10;;;19.70;65.60;;;;;;8372143;28;20200;-68
2022/10/10 12:18:49;;;;;;;2.33;2.03;;;19.80;66.00;;;;;;8389675;28;20218;-69
2022/10/10 12:23:20;;;;;;;8.37;3.47;;;19.90;42.50;;;;;;8352745;28;20201;-69
2022/10/10 12:27:40;;;;;;;4.50;2.70;;;19.90;33.40;;;;;;8372613;28;20217;-68
2022/10/10 12:31:41;;;;;;;4.40;2.43;;;19.90;27.80;;;;;;8369089;28;20189;-68
2022/10/10 12:35:41;;;;;;;3.33;2.10;;;19.90;33.60;;;;;;8371907;28;20185;-68
2022/10/10 12:40:05;;;;;;;2.70;2.13;;;20.00;43.40;;;;;;8371011;28;20209;-69
2022/10/10 12:44:40;;;;;;;3.50;1.70;;;20.00;30.90;;;;;;8369846;28;20231;-68
2022/10/10 12:48:42;;;;;;;3.37;2.13;;;20.00;32.30;;;;;;8372917;28;20185;-69
2022/10/10 12:52:54;;;;;;;2.33;2.00;;;20.20;25.30;;;;;;8371894;28;20205;-68
2022/10/10 12:57:12;;;;;;;2.07;1.70;;;20.40;17.60;;;;;;8370075;28;20561;-67
2022/10/10 13:01:27;;;;;;;5.57;3.67;;;20.60;9.60;;;;;;8374052;28;20316;-68
2022/10/10 13:05:34;;;;;;;7.07;2.47;;;20.80;11.30;;;;;;8370654;28;20216;-69
2022/10/10 13:09:36;;;;;;;2.87;2.10;;;21.00;6.90;;;;;;8372402;28;20232;-69
2022/10/10 13:13:38;;;;;;;3.77;1.87;;;21.10;4.40;;;;;;8374971;28;20268;-68
2022/10/10 13:17:40;;;;;;;6.10;2.17;;;21.10;1.00;;;;;;8379209;28;20772;-68
2022/10/10 13:21:41;;;;;;;6.60;2.87;;;21.10;2.30;;;;;;8378557;28;20197;-68
2022/10/10 13:25:44;;;;;;;3.63;1.90;;;21.10;1.00;;;;;;8378322;28;20185;-67
2022/10/10 13:29:46;;;;;;;6.00;1.90;;;21.00;5.80;;;;;;8379909;28;20239;-68
2022/10/10 13:33:46;;;;;;;3.33;2.60;;;21.00;5.80;;;;;;8378189;28;20200;-68
2022/10/10 13:37:57;;;;;;;3.47;1.90;;;20.60;4.60;;;;;;8378848;28;20220;-72
2022/10/10 13:41:59;;;;;;;3.70;1.90;;;20.40;8.20;;;;;;8378482;28;20185;-69
2022/10/10 13:46:02;;;;;;;3.80;2.30;;;20.40;20.50;;;;;;8393395;28;20266;-68
2022/10/10 13:50:26;;;;;;;3.27;2.03;;;20.20;34.10;;;;;;8376147;28;20277;-69
2022/10/10 13:54:47;;;;;;;4.27;1.70;;;20.30;50.10;;;;;;8379398;28;20268;-69
2022/10/10 13:58:52;;;;;;;3.97;2.00;;;20.50;34.70;;;;;;8378135;28;20217;-68
2022/10/10 14:02:53;;;;;;;3.47;2.00;;;20.60;28.50;;;;;;8373568;28;20190;-69
2022/10/10 14:07:10;;;;;;;5.43;2.27;;;20.30;19.80;;;;;;8379305;28;20196;-68
2022/10/10 14:11:22;;;;;;;5.93;2.50;;;20.20;20.20;;;;;;8372335;28;20189;-68
2022/10/10 14:15:41;;;;;;;6.63;2.20;;;19.60;24.20;;;;;;8379503;28;20177;-68
2022/10/10 14:19:44;;;;;;;3.90;2.20;;;19.30;35.50;;;;;;8377474;28;20213;-68
2022/10/10 14:23:44;;;;;;;4.47;2.30;;;19.30;44.60;;;;;;8375686;28;20184;-68
2022/10/10 14:27:45;;;;;;;2.30;1.87;;;19.10;45.50;;;;;;8374178;28;20189;-69
2022/10/10 14:31:46;;;;;;;3.13;1.87;;;18.90;68.20;;;;;;8377510;28;20218;-68
2022/10/10 14:35:49;;;;;;;2.97;1.83;;;18.70;90.40;;;;;;8378065;28;20725;-68
2022/10/10 14:39:50;;;;;;;5.80;1.97;;;18.40;99.90;;;;;;8378180;28;20665;-68
2022/10/10 14:43:51;;;;;;;4.77;2.03;;;18.20;99.90;;;;;;8377984;28;20189;-68
2022/10/10 14:47:52;;;;;;;4.17;1.90;;;18.00;99.90;;;;;;8374676;28;20188;-68
2022/10/10 14:51:53;;;;;;;4.90;2.60;;;18.00;99.90;;;;;;8375333;28;20216;-67
2022/10/10 14:55:53;;;;;;;3.60;2.07;;;18.00;99.90;;;;;;8377801;28;20200;-68
2022/10/10 14:59:54;;;;;;;4.37;2.57;;;18.00;99.90;;;;;;8378744;28;20336;-68
2022/10/10 15:03:55;;;;;;;3.90;2.27;;;18.10;99.90;;;;;;8373131;28;20189;-68
2022/10/10 15:07:56;;;;;;;2.83;2.03;;;18.00;1.00;;;;;;8376970;28;20267;-67
2022/10/10 15:11:56;;;;;;;4.07;2.23;;;17.80;1.00;;;;;;8378745;28;20189;-67
2022/10/10 15:15:57;;;;;;;3.87;2.50;;;17.70;99.90;;;;;;8376474;28;20312;-67
2022/10/10 15:19:58;;;;;;;3.30;2.30;;;17.50;73.60;;;;;;8376350;28;20213;-67
2022/10/10 15:23:59;;;;;;;3.93;2.20;;;17.40;99.90;;;;;;8378199;28;20191;-67
2022/10/10 15:28:02;;;;;;;5.27;2.73;;;17.20;99.90;;;;;;8374503;28;20282;-67
2022/10/10 15:32:03;;;;;;;3.23;2.50;;;16.90;1.00;;;;;;8376310;28;20189;-67
2022/10/10 15:36:05;;;;;;;4.10;2.40;;;16.60;99.90;;;;;;8371963;28;20228;-67
2022/10/10 15:40:07;;;;;;;5.70;2.77;;;16.50;1.00;;;;;;8377290;28;20248;-67
2022/10/10 15:44:14;;;;;;;3.60;2.50;;;16.30;99.90;;;;;;8378014;28;20212;-67
2022/10/10 15:48:14;;;;;;;4.37;2.70;;;16.20;99.90;;;;;;8377852;28;20282;-67
2022/10/10 15:52:16;;;;;;;4.10;2.40;;;16.00;1.00;;;;;;8372915;28;20208;-68
2022/10/10 15:56:17;;;;;;;2.80;2.40;;;15.90;1.00;;;;;;8377223;28;20212;-67
2022/10/10 16:00:18;;;;;;;3.00;2.63;;;15.80;11.00;;;;;;8376002;28;20180;-67
2022/10/10 16:04:21;;;;;;;4.73;2.87;;;15.60;99.40;;;;;;8376493;28;20218;-67
2022/10/10 16:08:22;;;;;;;5.17;2.70;;;15.40;99.90;;;;;;8376589;28;20427;-67
2022/10/10 16:12:22;;;;;;;3.37;2.27;;;15.30;99.90;;;;;;8376426;28;20216;-66
2022/10/10 16:16:25;;;;;;;2.50;2.30;;;15.10;1.00;;;;;;8374925;28;20189;-67
2022/10/10 16:20:27;;;;;;;2.67;2.17;;;14.90;1.00;;;;;;8377068;28;20192;-67
2022/10/10 16:24:28;;;;;;;2.60;2.40;;;14.80;93.40;;;;;;8375938;28;20189;-67
2022/10/10 16:28:29;;;;;;;2.93;2.47;;;14.60;99.90;;;;;;8375157;28;20280;-67
2022/10/10 16:32:31;;;;;;;30.93;15.60;;;14.50;99.90;;;;;;8377332;28;20212;-67
2022/10/10 16:36:34;;;;;;;21.87;11.43;;;14.40;1.00;;;;;;8379887;28;20185;-68
2022/10/10 16:40:35;;;;;;;12.27;7.23;;;14.20;99.90;;;;;;8389747;28;20275;-67
2022/10/10 16:44:36;;;;;;;7.57;4.90;;;14.10;99.90;;;;;;8375008;28;20205;-67
2022/10/10 16:48:38;;;;;;;5.37;3.90;;;14.00;1.00;;;;;;8372802;28;20185;-67
2022/10/10 16:52:39;;;;;;;4.60;3.20;;;13.90;17.20;;;;;;8375823;28;20184;-67
2022/10/10 16:56:40;;;;;;;7.37;3.20;;;13.70;99.90;;;;;;8373299;28;20213;-67
2022/10/10 17:00:42;;;;;;;5.10;3.40;;;13.60;1.00;;;;;;8373493;28;20211;-67
2022/10/10 17:04:42;;;;;;;4.40;2.90;;;13.50;63.00;;;;;;8376480;28;20204;-67
2022/10/10 17:08:44;;;;;;;4.93;2.90;;;13.40;99.90;;;;;;8375425;28;20188;-67
2022/10/10 17:12:45;;;;;;;4.17;3.00;;;13.30;1.00;;;;;;8375573;28;20209;-68
2022/10/10 17:16:46;;;;;;;4.40;2.80;;;13.20;99.90;;;;;;8374481;28;20201;-67
2022/10/10 17:20:47;;;;;;;6.40;3.77;;;13.20;1.00;;;;;;8371288;28;20196;-67
2022/10/10 17:24:48;;;;;;;4.47;3.53;;;13.20;99.90;;;;;;8373799;28;20185;-67
2022/10/10 17:28:49;;;;;;;3.70;3.00;;;13.20;1.00;;;;;;8373335;28;20181;-66
2022/10/10 17:32:50;;;;;;;6.60;3.70;;;13.10;1.00;;;;;;8373256;28;20194;-67
2022/10/10 17:36:53;;;;;;;4.47;3.60;;;13.10;99.90;;;;;;8372313;28;20212;-66
2022/10/10 17:40:58;;;;;;;8.23;4.40;;;13.10;99.90;;;;;;8370365;28;20182;-66
2022/10/10 17:44:59;;;;;;;5.70;4.50;;;13.20;99.90;;;;;;8370804;28;20189;-67
2022/10/10 17:48:59;;;;;;;6.50;4.43;;;13.20;1.00;;;;;;8374838;28;20188;-71
2022/10/10 17:53:01;;;;;;;8.43;4.60;;;13.20;1.00;;;;;;8373347;28;20192;-67
2022/10/10 17:57:03;;;;;;;5.10;4.33;;;13.10;99.90;;;;;;8373418;28;20221;-68
2022/10/10 18:01:04;;;;;;;5.30;4.00;;;13.10;99.90;;;;;;8376054;28;20189;-68
2022/10/10 18:05:06;;;;;;;8.53;4.80;;;13.00;1.00;;;;;;8377977;28;20188;-67
2022/10/10 18:09:07;;;;;;;6.77;4.63;;;13.00;99.90;;;;;;8378989;28;20242;-67
2022/10/10 18:13:08;;;;;;;7.03;4.33;;;12.90;1.00;;;;;;8380167;28;20239;-66
2022/10/10 18:17:10;;;;;;;8.57;5.07;;;12.80;1.00;;;;;;8379068;28;20205;-67
2022/10/10 18:21:11;;;;;;;7.00;5.00;;;12.80;1.00;;;;;;8375441;28;20216;-67
2022/10/10 18:25:12;;;;;;;7.30;5.23;;;12.70;99.90;;;;;;8380932;28;20221;-66
2022/10/10 18:29:13;;;;;;;6.83;5.20;;;12.70;99.90;;;;;;8378684;28;20181;-68
2022/10/10 18:33:14;;;;;;;10.73;5.33;;;12.70;99.90;;;;;;8381736;28;20181;-67
2022/10/10 18:37:15;;;;;;;8.43;5.67;;;12.70;99.90;;;;;;8380791;28;20197;-71
2022/10/10 18:41:21;;;;;;;8.67;5.47;;;12.80;99.90;;;;;;8378881;28;20191;-68
2022/10/10 18:45:22;;;;;;;8.03;5.83;;;12.80;99.90;;;;;;8380238;28;20177;-68
2022/10/10 18:49:24;;;;;;;8.20;6.37;;;12.80;99.90;;;;;;8378637;28;20288;-68
2022/10/10 18:53:24;;;;;;;9.87;5.97;;;12.80;24.30;;;;;;8375293;28;20181;-69
2022/10/10 18:57:25;;;;;;;8.23;5.60;;;12.90;1.00;;;;;;8379177;28;20238;-67
2022/10/10 19:01:28;;;;;;;9.63;6.10;;;13.00;99.90;;;;;;8379123;28;20248;-67
2022/10/10 19:05:29;;;;;;;7.00;4.93;;;13.10;99.90;;;;;;8374967;28;20186;-68
2022/10/10 19:09:30;;;;;;;7.33;5.30;;;13.10;1.00;;;;;;8378046;28;20196;-68
2022/10/10 19:13:33;;;;;;;6.83;5.30;;;13.10;1.00;;;;;;8392192;28;20197;-68
2022/10/10 19:17:33;;;;;;;6.90;4.67;;;13.10;1.00;;;;;;8377607;28;20209;-67
2022/10/10 19:21:36;;;;;;;6.50;4.87;;;13.00;1.00;;;;;;8378245;28;20181;-67
2022/10/10 19:25:39;;;;;;;9.23;5.33;;;13.00;1.00;;;;;;8378320;28;20181;-67
2022/10/10 19:29:39;;;;;;;8.97;5.07;;;12.90;1.00;;;;;;8376978;28;20224;-67
2022/10/10 19:33:42;;;;;;;10.07;5.40;;;12.90;1.00;;;;;;8379942;28;20189;-67
2022/10/10 19:37:43;;;;;;;5.97;4.77;;;12.80;1.00;;;;;;8374689;28;20209;-68
2022/10/10 19:41:44;;;;;;;10.13;5.10;;;12.70;99.90;;;;;;8375695;28;20200;-67
2022/10/10 19:45:47;;;;;;;10.27;5.00;;;12.60;99.90;;;;;;8379674;28;20185;-68
2022/10/10 19:49:48;;;;;;;8.67;5.20;;;12.40;99.90;;;;;;8375480;28;20289;-68
2022/10/10 19:53:49;;;;;;;8.27;4.70;;;12.30;99.90;;;;;;8376721;28;20200;-67
2022/10/10 19:57:50;;;;;;;9.30;5.73;;;12.10;1.00;;;;;;8375384;28;20221;-68
2022/10/10 20:01:51;;;;;;;7.43;5.97;;;12.00;99.90;;;;;;8369994;28;20224;-67
2022/10/10 20:05:52;;;;;;;7.53;5.80;;;11.90;99.90;;;;;;8377033;28;20220;-67
2022/10/10 20:09:53;;;;;;;7.83;5.53;;;11.80;1.00;;;;;;8375258;28;20227;-67
2022/10/10 20:13:54;;;;;;;8.43;5.93;;;11.70;99.90;;;;;;8370367;28;20203;-67
2022/10/10 20:17:55;;;;;;;7.97;6.17;;;11.70;99.90;;;;;;8372567;28;20224;-67
2022/10/10 20:21:57;;;;;;;9.63;6.40;;;11.60;99.90;;;;;;8375595;28;20256;-68
2022/10/10 20:25:58;;;;;;;11.47;7.43;;;11.50;1.00;;;;;;8367839;28;20196;-68
2022/10/10 20:29:58;;;;;;;8.60;6.90;;;11.50;1.00;;;;;;8371622;28;20243;-68
2022/10/10 20:34:00;;;;;;;11.77;7.13;;;11.40;99.90;;;;;;8374191;28;20200;-68
2022/10/10 20:38:03;;;;;;;11.47;7.20;;;11.40;96.60;;;;;;8372883;28;20209;-68
2022/10/10 20:42:04;;;;;;;8.90;6.37;;;11.30;1.00;;;;;;8373210;28;20191;-69
2022/10/10 20:46:09;;;;;;;7.80;6.23;;;11.20;99.90;;;;;;8373990;28;20222;-69
2022/10/10 20:50:10;;;;;;;12.30;6.60;;;11.20;1.00;;;;;;8374135;28;20191;-69
2022/10/10 20:54:11;;;;;;;11.33;7.80;;;11.10;99.90;;;;;;8371888;28;20192;-68
2022/10/10 20:58:12;;;;;;;12.17;7.00;;;11.10;99.90;;;;;;8373703;28;20224;-69
2022/10/10 21:02:13;;;;;;;14.20;7.67;;;11.10;1.00;;;;;;8374386;28;20606;-68
2022/10/10 21:06:14;;;;;;;10.47;6.07;;;11.10;1.00;;;;;;8374488;28;20445;-69
2022/10/10 21:10:15;;;;;;;7.77;5.87;;;11.00;99.90;;;;;;8371896;28;20200;-69
2022/10/10 21:14:15;;;;;;;10.60;6.00;;;11.00;91.40;;;;;;8369212;28;20258;-68
2022/10/10 21:18:16;;;;;;;10.37;6.23;;;10.90;1.00;;;;;;8371557;28;20220;-68